Time;durP1;ratioP1;P1;durP2;ratioP2;P2;SDS_P1;SDS_P2;PMS_P1;PMS_P2;Temp;Humidity;BMP_temperature;BMP_pressure;BME280_temperature;BME280_humidity;BME280_pressure;Samples;Min_cycle;Max_cycle;Signal;HPM_P1;HPM_P2
2023/05/04 00:01:52;;;;;;;8.73;5.83;;;7.90;1.00;;;;;;5133993;27;20207;-70
2023/05/04 00:04:19;;;;;;;9.77;6.47;;;7.80;99.90;;;;;;5132663;28;20637;-71
2023/05/04 00:06:46;;;;;;;7.07;5.63;;;7.80;1.00;;;;;;5133907;27;20172;-71
2023/05/04 00:09:15;;;;;;;10.27;6.33;;;7.80;99.90;;;;;;5132710;28;20192;-71
2023/05/04 00:11:41;;;;;;;8.13;6.33;;;7.80;99.90;;;;;;5132745;28;20176;-71
2023/05/04 00:14:07;;;;;;;8.13;6.00;;;7.70;99.90;;;;;;5134263;27;20219;-71
2023/05/04 00:16:34;;;;;;;9.97;5.80;;;7.70;1.00;;;;;;5134025;27;20186;-71
2023/05/04 00:19:00;;;;;;;8.10;6.43;;;7.70;1.00;;;;;;5135300;27;20195;-71
2023/05/04 00:21:26;;;;;;;11.00;6.20;;;7.60;1.00;;;;;;5137649;27;20533;-71
2023/05/04 00:50:56;;;;;;;8.70;6.50;;;6.70;1.00;;;;;;5137041;27;20197;-71
2023/05/04 00:53:22;;;;;;;7.87;6.67;;;6.60;99.90;;;;;;5135838;27;20290;-71
2023/05/04 00:55:48;;;;;;;9.37;6.83;;;6.50;99.90;;;;;;5135956;27;20168;-71
2023/05/04 00:58:14;;;;;;;9.77;7.13;;;6.40;99.90;;;;;;5137055;27;20179;-71
2023/05/04 01:00:40;;;;;;;8.50;6.57;;;6.50;99.90;;;;;;5137103;27;20270;-71
2023/05/04 01:03:08;;;;;;;8.13;6.47;;;6.60;99.90;;;;;;5135687;27;20184;-71
2023/05/04 01:05:37;;;;;;;7.73;6.43;;;6.70;5.20;;;;;;5136711;27;20198;-71
2023/05/04 01:08:14;;;;;;;7.10;6.30;;;6.70;1.00;;;;;;5137026;27;20160;-71
2023/05/04 01:10:51;;;;;;;10.70;6.20;;;6.70;1.00;;;;;;5137156;27;20190;-71
2023/05/04 01:13:22;;;;;;;7.77;6.67;;;6.70;1.00;;;;;;5135546;27;20191;-71
2023/05/04 01:15:48;;;;;;;6.97;6.03;;;6.70;1.00;;;;;;5135784;27;20707;-71
2023/05/04 01:18:15;;;;;;;9.90;6.67;;;6.80;1.00;;;;;;5135948;27;20224;-71
2023/05/04 01:20:41;;;;;;;9.03;6.03;;;6.80;1.00;;;;;;5138478;27;20203;-71
2023/05/04 01:23:07;;;;;;;7.27;6.37;;;6.80;1.00;;;;;;5144659;27;20199;-71
2023/05/04 01:25:55;;;;;;;6.47;5.87;;;6.70;1.00;;;;;;5147908;27;20183;-71
2023/05/04 01:28:38;;;;;;;8.03;6.50;;;6.70;1.00;;;;;;5140197;27;20176;-71
2023/05/04 01:31:06;;;;;;;11.37;6.73;;;6.70;1.00;;;;;;5138099;27;20164;-71
2023/05/04 01:33:33;;;;;;;10.73;6.57;;;6.60;1.00;;;;;;5136846;27;20196;-71
2023/05/04 01:35:59;;;;;;;10.00;6.57;;;6.60;1.00;;;;;;5137505;27;20579;-71
2023/05/04 01:38:25;;;;;;;8.33;6.37;;;6.60;1.00;;;;;;5135403;27;20179;-70
2023/05/04 01:40:50;;;;;;;7.07;6.37;;;6.60;1.00;;;;;;5135165;27;20176;-69
2023/05/04 01:43:16;;;;;;;9.37;7.03;;;6.50;1.00;;;;;;5136801;27;20167;-69
2023/05/04 01:45:42;;;;;;;10.67;6.40;;;6.40;1.00;;;;;;5134856;27;20171;-69
2023/05/04 01:48:07;;;;;;;7.63;6.23;;;6.50;1.00;;;;;;5136181;27;20255;-69
2023/05/04 01:50:33;;;;;;;8.17;6.40;;;6.50;1.00;;;;;;5134545;27;20449;-69
2023/05/04 01:52:59;;;;;;;10.43;6.77;;;6.40;1.00;;;;;;5135841;27;20248;-70
2023/05/04 01:55:25;;;;;;;9.13;7.50;;;6.40;99.90;;;;;;5136456;27;20176;-69
2023/05/04 01:57:50;;;;;;;9.00;6.43;;;6.40;1.00;;;;;;5136024;27;20172;-69
2023/05/04 02:00:16;;;;;;;9.30;6.60;;;6.40;16.10;;;;;;5134628;27;20187;-71
2023/05/04 02:02:42;;;;;;;8.83;7.17;;;6.40;1.00;;;;;;5134526;27;20187;-72
2023/05/04 02:05:08;;;;;;;8.47;6.83;;;6.40;1.00;;;;;;5135712;27;20180;-72
2023/05/04 02:07:34;;;;;;;7.83;6.87;;;6.10;58.70;;;;;;5134622;27;20190;-73
2023/05/04 02:10:00;;;;;;;12.50;7.30;;;6.00;99.90;;;;;;5134512;27;20540;-72
2023/05/04 02:12:25;;;;;;;8.60;7.13;;;5.90;1.00;;;;;;5135654;27;20651;-72
2023/05/04 02:14:51;;;;;;;9.10;7.53;;;5.80;1.00;;;;;;5135860;27;20172;-72
2023/05/04 02:17:17;;;;;;;10.53;7.17;;;5.60;1.00;;;;;;5135587;27;20680;-72
2023/05/04 02:19:42;;;;;;;9.27;7.10;;;5.70;1.00;;;;;;5134407;27;20237;-72
2023/05/04 02:22:08;;;;;;;8.87;6.77;;;5.80;1.00;;;;;;5134071;27;20239;-72
2023/05/04 02:24:34;;;;;;;8.03;6.97;;;5.80;99.90;;;;;;5134253;27;20183;-72
2023/05/04 02:27:00;;;;;;;8.87;6.87;;;5.80;1.00;;;;;;5134162;27;20206;-71
2023/05/04 02:29:26;;;;;;;10.30;6.70;;;5.80;99.90;;;;;;5135251;27;20183;-72
2023/05/04 02:31:52;;;;;;;9.07;6.93;;;5.90;1.00;;;;;;5135752;27;20198;-72
2023/05/04 02:34:18;;;;;;;11.13;6.77;;;6.00;1.00;;;;;;5135565;27;20208;-71
2023/05/04 02:36:44;;;;;;;9.30;7.27;;;6.00;1.00;;;;;;5135377;27;20179;-72
2023/05/04 02:39:09;;;;;;;7.37;6.57;;;5.90;1.00;;;;;;5135589;27;20191;-72
2023/05/04 02:41:35;;;;;;;7.80;7.00;;;6.00;99.90;;;;;;5133920;27;20176;-69
2023/05/04 02:44:01;;;;;;;8.53;7.03;;;6.00;99.90;;;;;;5134815;27;20172;-72
2023/05/04 02:46:27;;;;;;;7.87;7.03;;;6.00;1.00;;;;;;5135619;27;20548;-72
2023/05/04 02:48:52;;;;;;;8.87;7.23;;;6.00;1.00;;;;;;5135034;27;20229;-70
2023/05/04 02:51:18;;;;;;;9.07;7.00;;;5.90;1.00;;;;;;5134835;27;20178;-69
2023/05/04 02:53:44;;;;;;;7.40;6.60;;;5.90;1.00;;;;;;5135246;27;20619;-69
2023/05/04 02:56:09;;;;;;;10.73;6.77;;;5.90;1.00;;;;;;5135381;27;20247;-70
2023/05/04 02:58:35;;;;;;;10.10;6.93;;;5.90;1.00;;;;;;5134572;27;20168;-70
2023/05/04 03:01:01;;;;;;;7.53;6.53;;;5.90;30.00;;;;;;5133254;27;20190;-70
2023/05/04 03:03:27;;;;;;;9.30;7.13;;;5.90;99.90;;;;;;5135235;27;20164;-69
2023/05/04 03:05:52;;;;;;;9.17;6.93;;;5.90;60.20;;;;;;5134630;27;20180;-69
2023/05/04 03:08:18;;;;;;;9.27;7.00;;;5.80;99.90;;;;;;5135317;27;20159;-69
2023/05/04 03:10:44;;;;;;;8.27;6.57;;;5.80;99.90;;;;;;5134925;27;20680;-70
2023/05/04 03:13:10;;;;;;;12.40;7.03;;;5.80;99.90;;;;;;5133171;27;20284;-69
2023/05/04 03:15:36;;;;;;;12.13;7.50;;;5.80;99.90;;;;;;5133242;27;20183;-70
2023/05/04 03:18:03;;;;;;;9.40;7.00;;;5.80;99.90;;;;;;5135104;27;20175;-69
2023/05/04 03:20:29;;;;;;;10.70;6.90;;;5.70;99.90;;;;;;5133720;27;20219;-68
2023/05/04 03:22:55;;;;;;;8.20;6.83;;;5.70;99.90;;;;;;5134456;27;20215;-68
2023/05/04 03:25:20;;;;;;;9.30;7.27;;;5.70;1.00;;;;;;5134598;28;20179;-68
2023/05/04 03:27:46;;;;;;;8.57;6.80;;;5.70;1.00;;;;;;5134382;27;20168;-68
2023/05/04 03:30:12;;;;;;;8.97;7.43;;;5.70;1.00;;;;;;5134804;27;20198;-68
2023/05/04 03:32:39;;;;;;;8.87;7.23;;;5.70;1.00;;;;;;5134453;27;20282;-68
2023/05/04 03:35:06;;;;;;;14.87;7.57;;;5.80;94.30;;;;;;5127081;27;20251;-69
2023/05/04 03:37:31;;;;;;;8.03;6.93;;;5.70;99.90;;;;;;5113845;28;20169;-68
2023/05/04 03:39:57;;;;;;;7.97;6.90;;;5.70;99.90;;;;;;5113837;28;20687;-72
2023/05/04 03:42:23;;;;;;;9.30;7.07;;;5.70;99.90;;;;;;5113924;28;20750;-72
2023/05/04 03:44:49;;;;;;;9.70;7.27;;;5.70;99.90;;;;;;5112490;28;20176;-72
2023/05/04 03:47:15;;;;;;;9.93;6.97;;;5.60;1.00;;;;;;5113643;28;20230;-72
2023/05/04 03:49:40;;;;;;;12.07;7.00;;;5.50;91.50;;;;;;5112322;28;20204;-72
2023/05/04 03:52:06;;;;;;;8.47;7.57;;;5.60;99.90;;;;;;5113526;28;20649;-72
2023/05/04 03:54:32;;;;;;;9.67;7.30;;;5.60;1.00;;;;;;5115888;28;20175;-72
2023/05/04 03:56:58;;;;;;;12.43;7.90;;;5.50;99.90;;;;;;5118585;28;20192;-72
2023/05/04 03:59:23;;;;;;;10.70;7.23;;;5.50;1.00;;;;;;5116677;28;20192;-72
2023/05/04 04:01:50;;;;;;;8.50;7.60;;;5.40;99.90;;;;;;5117736;28;20199;-72
2023/05/04 04:04:15;;;;;;;10.60;7.03;;;5.40;99.90;;;;;;5118290;28;20648;-71
2023/05/04 04:06:41;;;;;;;8.87;7.70;;;5.40;99.90;;;;;;5138060;27;20202;-72
2023/05/04 04:09:07;;;;;;;12.13;7.80;;;5.40;1.00;;;;;;5138394;27;20198;-73
2023/05/04 04:11:33;;;;;;;10.13;7.57;;;5.30;1.00;;;;;;5138216;27;20168;-72
2023/05/04 04:13:59;;;;;;;9.50;7.60;;;5.30;1.00;;;;;;5138156;27;20199;-73
2023/05/04 04:16:24;;;;;;;11.43;8.00;;;5.40;5.20;;;;;;5138495;27;20251;-73
2023/05/04 04:18:50;;;;;;;11.63;8.20;;;5.40;99.90;;;;;;5138335;27;20191;-72
2023/05/04 04:21:16;;;;;;;10.33;8.03;;;5.40;32.00;;;;;;5136543;27;20178;-72
2023/05/04 04:23:42;;;;;;;9.40;8.17;;;5.40;1.00;;;;;;5138023;27;20183;-72
2023/05/04 04:26:08;;;;;;;12.83;8.37;;;5.40;1.00;;;;;;5138017;27;20535;-72
2023/05/04 04:28:33;;;;;;;10.30;8.17;;;5.40;1.00;;;;;;5136169;27;20180;-72
2023/05/04 04:30:59;;;;;;;9.70;7.57;;;5.30;1.00;;;;;;5136408;27;20270;-72
2023/05/04 04:33:25;;;;;;;9.83;8.20;;;5.20;1.00;;;;;;5136508;27;20244;-72
2023/05/04 04:35:52;;;;;;;9.87;7.77;;;5.20;1.00;;;;;;5136173;27;20183;-73
2023/05/04 04:38:18;;;;;;;10.63;7.50;;;5.40;99.90;;;;;;5136331;27;20224;-72
2023/05/04 04:40:44;;;;;;;11.10;8.33;;;5.40;99.90;;;;;;5137380;27;20670;-72
2023/05/04 04:43:10;;;;;;;9.60;7.03;;;5.50;99.90;;;;;;5136150;27;20179;-72
2023/05/04 04:45:36;;;;;;;8.30;7.00;;;5.50;43.90;;;;;;5137298;27;20164;-72
2023/05/04 04:48:02;;;;;;;11.97;8.00;;;5.50;99.90;;;;;;5137725;27;20179;-72
2023/05/04 04:50:28;;;;;;;8.93;7.23;;;5.50;1.00;;;;;;5135844;27;20195;-72
2023/05/04 04:52:54;;;;;;;7.77;6.97;;;5.40;1.00;;;;;;5135947;27;20203;-72
2023/05/04 04:55:22;;;;;;;10.63;7.40;;;5.40;1.00;;;;;;5137445;27;20171;-72
2023/05/04 04:57:49;;;;;;;12.57;8.00;;;5.30;99.90;;;;;;5137246;27;20171;-72
2023/05/04 05:00:15;;;;;;;16.23;7.60;;;5.30;99.90;;;;;;5137091;27;20191;-72
2023/05/04 05:02:42;;;;;;;9.07;7.63;;;5.30;99.90;;;;;;5136961;27;20186;-72
2023/05/04 05:05:09;;;;;;;13.43;7.93;;;5.40;99.90;;;;;;5136143;27;20223;-72
2023/05/04 05:07:35;;;;;;;9.40;7.10;;;5.40;99.90;;;;;;5136805;27;20524;-71
2023/05/04 05:10:01;;;;;;;10.07;7.50;;;5.40;1.00;;;;;;5136803;27;20253;-72
2023/05/04 05:12:27;;;;;;;9.67;7.73;;;5.50;99.90;;;;;;5137064;27;20217;-72
2023/05/04 05:14:53;;;;;;;10.73;7.70;;;5.60;99.90;;;;;;5135698;27;20180;-72
2023/05/04 05:17:19;;;;;;;9.80;8.17;;;5.60;99.90;;;;;;5137071;27;20250;-73
2023/05/04 05:19:45;;;;;;;10.40;8.17;;;5.70;99.90;;;;;;5136619;27;20598;-71
2023/05/04 05:22:11;;;;;;;14.10;8.20;;;5.80;99.90;;;;;;5136519;27;20176;-71
2023/05/04 05:24:37;;;;;;;15.10;8.00;;;5.90;99.90;;;;;;5135345;27;20205;-71
2023/05/04 05:27:03;;;;;;;11.23;7.60;;;6.00;1.00;;;;;;5135496;27;20259;-71
2023/05/04 05:29:29;;;;;;;14.67;8.20;;;6.10;1.00;;;;;;5135465;27;20206;-71
2023/05/04 05:31:55;;;;;;;9.97;7.57;;;6.20;1.00;;;;;;5135025;27;20644;-71
2023/05/04 05:34:21;;;;;;;10.80;7.87;;;6.30;99.90;;;;;;5135038;27;20229;-71
2023/05/04 05:36:47;;;;;;;14.13;7.57;;;6.40;1.00;;;;;;5136569;27;20187;-71
2023/05/04 05:39:14;;;;;;;14.27;8.60;;;6.50;99.90;;;;;;5135157;27;20202;-71
2023/05/04 05:41:40;;;;;;;11.07;7.70;;;6.50;99.90;;;;;;5136399;27;20191;-71
2023/05/04 05:44:06;;;;;;;10.77;8.00;;;6.60;99.90;;;;;;5136045;27;20201;-71
2023/05/04 05:46:32;;;;;;;11.57;7.90;;;6.60;99.90;;;;;;5136392;27;20175;-71
2023/05/04 05:48:58;;;;;;;11.63;7.80;;;6.70;99.90;;;;;;5134813;27;20316;-71
2023/05/04 05:51:24;;;;;;;8.77;7.30;;;6.80;52.10;;;;;;5136102;27;20183;-71
2023/05/04 05:53:50;;;;;;;9.10;7.80;;;6.90;99.90;;;;;;5135899;27;20693;-71
2023/05/04 05:56:16;;;;;;;11.00;7.90;;;7.10;1.00;;;;;;5134646;27;20266;-71
2023/05/04 05:58:42;;;;;;;11.37;8.10;;;7.20;1.00;;;;;;5134557;27;20628;-71
2023/05/04 06:01:08;;;;;;;12.50;8.07;;;7.40;1.00;;;;;;5135895;27;20255;-71
2023/05/04 06:03:33;;;;;;;11.43;7.97;;;7.50;1.00;;;;;;5135754;27;20168;-71
2023/05/04 06:05:59;;;;;;;11.47;8.17;;;7.60;1.00;;;;;;5136130;27;20552;-71
2023/05/04 06:08:25;;;;;;;8.07;7.03;;;7.70;99.90;;;;;;5135882;27;20628;-71
2023/05/04 06:10:51;;;;;;;8.53;7.57;;;7.90;99.90;;;;;;5135775;27;20546;-71
2023/05/04 06:13:17;;;;;;;10.20;8.17;;;8.00;99.90;;;;;;5135950;27;20195;-71
2023/05/04 06:15:53;;;;;;;10.60;7.90;;;8.30;75.70;;;;;;5134343;27;20199;-68
2023/05/04 06:18:19;;;;;;;8.30;7.23;;;8.50;99.90;;;;;;5134346;27;20244;-69
2023/05/04 06:20:45;;;;;;;11.63;7.53;;;8.60;99.90;;;;;;5134009;27;20210;-69
2023/05/04 06:23:13;;;;;;;9.20;7.47;;;8.90;92.20;;;;;;5135881;27;20164;-69
2023/05/04 06:25:39;;;;;;;9.60;7.10;;;9.10;1.00;;;;;;5135595;27;20172;-69
2023/05/04 06:28:05;;;;;;;11.53;7.50;;;9.30;1.00;;;;;;5136286;27;20179;-72
2023/05/04 06:30:31;;;;;;;8.43;7.47;;;9.40;99.90;;;;;;5136030;27;20196;-71
2023/05/04 06:32:56;;;;;;;11.73;7.53;;;9.50;94.20;;;;;;5134546;27;20207;-73
2023/05/04 06:35:22;;;;;;;11.87;7.17;;;9.70;1.00;;;;;;5133945;27;20187;-73
2023/05/04 06:37:48;;;;;;;8.80;7.23;;;9.70;1.00;;;;;;5133911;27;20527;-73
2023/05/04 06:40:14;;;;;;;9.90;6.57;;;9.90;1.00;;;;;;5133948;27;20207;-73
2023/05/04 06:42:40;;;;;;;8.63;6.90;;;10.10;1.00;;;;;;5135636;27;20635;-73
2023/05/04 06:45:06;;;;;;;7.77;6.87;;;10.30;1.00;;;;;;5135550;27;20245;-73
2023/05/04 06:47:36;;;;;;;11.77;7.13;;;10.40;99.90;;;;;;5133883;27;20175;-73
2023/05/04 06:50:08;;;;;;;12.00;6.87;;;10.60;99.90;;;;;;5135004;27;20202;-73
2023/05/04 06:52:37;;;;;;;11.02;7.10;;;10.80;99.90;;;;;;5133657;27;20691;-73
2023/05/04 06:55:03;;;;;;;9.17;7.13;;;10.80;99.90;;;;;;5135056;27;20624;-73
2023/05/04 06:57:29;;;;;;;10.15;6.78;;;11.00;99.90;;;;;;5134852;27;20179;-73
2023/05/04 06:59:55;;;;;;;10.43;7.40;;;11.10;99.90;;;;;;5133535;27;20203;-73
2023/05/04 07:02:21;;;;;;;8.27;7.37;;;11.20;99.90;;;;;;5134874;27;20202;-73
2023/05/04 07:04:46;;;;;;;10.50;6.80;;;11.30;99.90;;;;;;5133667;27;20636;-73
2023/05/04 07:07:12;;;;;;;8.95;6.60;;;11.40;99.90;;;;;;5134876;27;20175;-73
2023/05/04 07:09:38;;;;;;;9.00;7.15;;;11.50;99.90;;;;;;5134968;27;20217;-73
2023/05/04 07:12:04;;;;;;;9.57;7.15;;;11.60;99.90;;;;;;5133658;27;20176;-73
2023/05/04 07:14:30;;;;;;;19.83;7.50;;;11.70;99.90;;;;;;5133360;27;20211;-73
2023/05/04 07:16:55;;;;;;;9.10;7.20;;;11.80;99.90;;;;;;5133608;27;20191;-73
2023/05/04 07:19:21;;;;;;;8.52;6.50;;;11.90;99.90;;;;;;5134800;27;20766;-73
2023/05/04 07:21:47;;;;;;;7.25;6.10;;;12.00;99.90;;;;;;5134244;27;20172;-73
2023/05/04 07:24:13;;;;;;;13.93;6.68;;;12.10;99.90;;;;;;5135971;27;20203;-73
2023/05/04 07:26:39;;;;;;;7.00;6.13;;;12.30;85.80;;;;;;5135488;27;20180;-73
2023/05/04 07:29:05;;;;;;;11.02;6.57;;;12.40;99.90;;;;;;5134330;27;20215;-72
2023/05/04 07:31:31;;;;;;;9.15;6.40;;;12.50;99.90;;;;;;5134659;27;20203;-73
2023/05/04 07:33:56;;;;;;;11.05;6.65;;;12.70;99.90;;;;;;5134516;27;20230;-73
2023/05/04 07:36:25;;;;;;;9.98;6.50;;;12.80;83.10;;;;;;5133317;28;20183;-73
2023/05/04 07:38:51;;;;;;;7.13;6.43;;;13.00;36.60;;;;;;5133101;28;20671;-73
2023/05/04 07:41:16;;;;;;;13.50;7.32;;;13.20;1.00;;;;;;5134453;27;20175;-73
2023/05/04 07:43:42;;;;;;;9.13;6.65;;;13.30;1.00;;;;;;5134723;27;20175;-73
2023/05/04 07:46:08;;;;;;;10.43;6.28;;;13.50;1.00;;;;;;5133085;28;20564;-73
2023/05/04 07:48:33;;;;;;;10.10;6.72;;;13.60;1.00;;;;;;5133022;28;20183;-72
2023/05/04 07:50:59;;;;;;;9.13;6.47;;;13.70;1.00;;;;;;5134722;27;20175;-72
2023/05/04 07:53:25;;;;;;;11.20;6.00;;;13.90;1.00;;;;;;5132943;28;20211;-73
2023/05/04 07:55:56;;;;;;;9.32;6.15;;;14.10;1.00;;;;;;5134139;27;20197;-73
2023/05/04 07:58:22;;;;;;;8.50;6.43;;;14.30;1.00;;;;;;5133114;28;20167;-73
2023/05/04 08:00:48;;;;;;;8.52;5.30;;;14.50;1.00;;;;;;5134167;27;20667;-73
2023/05/04 08:03:14;;;;;;;9.93;6.43;;;14.70;1.00;;;;;;5133155;28;20259;-73
2023/05/04 08:05:40;;;;;;;7.35;5.90;;;14.90;1.00;;;;;;5135210;27;20184;-73
2023/05/04 08:08:08;;;;;;;10.15;6.15;;;15.00;1.00;;;;;;5134820;27;20228;-73
2023/05/04 08:10:36;;;;;;;11.73;5.90;;;15.20;1.00;;;;;;5134749;27;20218;-73
2023/05/04 08:13:04;;;;;;;12.25;5.40;;;15.40;1.00;;;;;;5134923;27;20227;-73
2023/05/04 08:15:29;;;;;;;7.70;5.95;;;15.60;1.00;;;;;;5133056;28;20176;-73
2023/05/04 08:17:55;;;;;;;6.88;5.28;;;15.70;1.00;;;;;;5133121;28;20175;-73
2023/05/04 08:20:21;;;;;;;8.90;6.03;;;16.00;1.00;;;;;;5134419;27;20274;-73
2023/05/04 08:22:47;;;;;;;8.25;5.50;;;16.40;1.00;;;;;;5133925;27;20171;-73
2023/05/04 08:25:12;;;;;;;9.52;5.05;;;16.90;1.00;;;;;;5132742;28;20175;-73
2023/05/04 08:27:38;;;;;;;7.88;4.68;;;17.50;1.00;;;;;;5134703;27;20172;-73
2023/05/04 08:30:05;;;;;;;8.65;5.13;;;18.30;1.00;;;;;;5132662;28;20228;-73
2023/05/04 08:32:31;;;;;;;7.25;4.97;;;19.00;1.00;;;;;;5134427;27;20656;-73
2023/05/04 08:34:57;;;;;;;9.85;5.07;;;19.70;1.00;;;;;;5132630;27;20184;-73
2023/05/04 08:37:22;;;;;;;8.10;4.40;;;20.30;1.00;;;;;;5133900;27;20251;-78
2023/05/04 08:39:48;;;;;;;10.35;5.07;;;20.70;1.00;;;;;;5133803;27;20188;-72
2023/05/04 08:42:30;;;;;;;7.53;5.28;;;20.60;1.00;;;;;;5137438;27;20172;-73
2023/05/04 08:44:57;;;;;;;8.25;5.10;;;21.10;1.00;;;;;;5136248;27;20164;-73
2023/05/04 08:47:26;;;;;;;7.32;5.32;;;21.60;1.00;;;;;;5137559;27;20187;-73
2023/05/04 08:49:53;;;;;;;9.65;4.80;;;21.60;1.00;;;;;;5137459;27;20260;-73
2023/05/04 08:52:23;;;;;;;10.32;4.35;;;21.70;1.00;;;;;;5137165;27;20164;-72
2023/05/04 08:54:53;;;;;;;6.18;4.15;;;21.70;1.00;;;;;;5137727;27;20160;-73
2023/05/04 08:57:24;;;;;;;7.75;4.35;;;21.90;1.00;;;;;;5137782;27;20160;-73
2023/05/04 08:59:52;;;;;;;5.50;4.20;;;21.90;1.00;;;;;;5137226;27;20184;-73
2023/05/04 09:02:22;;;;;;;4.32;3.92;;;22.00;1.00;;;;;;5137070;27;20195;-73
2023/05/04 09:04:49;;;;;;;6.55;4.05;;;22.10;1.00;;;;;;5132584;27;20210;-73
2023/05/04 09:07:17;;;;;;;7.03;4.30;;;22.10;1.00;;;;;;5116265;28;20169;-73
2023/05/04 09:09:43;;;;;;;5.43;3.72;;;22.10;1.00;;;;;;5115181;28;20189;-73
2023/05/04 09:12:09;;;;;;;5.88;3.97;;;22.20;1.00;;;;;;5116888;28;20180;-73
2023/05/04 09:14:35;;;;;;;6.85;4.07;;;22.40;99.90;;;;;;5116382;27;20181;-73
2023/05/04 09:17:02;;;;;;;5.43;4.05;;;22.50;99.90;;;;;;5115116;28;20176;-73
2023/05/04 09:19:32;;;;;;;5.32;3.83;;;22.60;99.90;;;;;;5116573;27;20196;-73
2023/05/04 09:22:01;;;;;;;6.28;4.25;;;22.20;1.00;;;;;;5115980;28;20522;-73
2023/05/04 09:24:28;;;;;;;4.82;3.88;;;22.00;99.90;;;;;;5114877;28;20168;-73
2023/05/04 09:26:54;;;;;;;8.52;4.13;;;21.90;99.90;;;;;;5116050;28;20708;-73
2023/05/04 09:29:22;;;;;;;5.68;3.50;;;22.20;99.90;;;;;;5114696;28;20228;-73
2023/05/04 09:31:49;;;;;;;7.40;3.90;;;22.50;99.90;;;;;;5116098;28;20161;-73
2023/05/04 09:34:19;;;;;;;4.75;3.83;;;21.90;99.90;;;;;;5115712;28;20188;-73
2023/05/04 09:36:44;;;;;;;6.97;3.92;;;22.20;99.90;;;;;;5095518;28;20624;-73
2023/05/04 09:39:14;;;;;;;6.72;4.13;;;22.40;99.90;;;;;;5095758;28;20196;-73
2023/05/04 09:41:41;;;;;;;5.75;3.83;;;22.00;99.90;;;;;;5094090;28;20174;-73
2023/05/04 09:44:20;;;;;;;7.20;4.50;;;22.10;99.90;;;;;;5095553;28;20180;-73
2023/05/04 09:46:56;;;;;;;5.03;3.47;;;21.90;99.90;;;;;;5094154;28;20169;-73
2023/05/04 09:49:35;;;;;;;6.72;4.30;;;22.10;99.90;;;;;;5094038;28;20232;-73
2023/05/04 09:52:03;;;;;;;5.55;3.63;;;22.20;99.90;;;;;;5094586;28;20181;-73
2023/05/04 09:54:31;;;;;;;6.55;4.13;;;22.30;99.90;;;;;;5095151;28;20336;-73
2023/05/04 09:57:09;;;;;;;7.53;3.80;;;21.90;99.90;;;;;;5093774;28;20173;-73
2023/05/04 09:59:35;;;;;;;8.10;4.28;;;21.70;99.90;;;;;;5093629;28;20207;-73
2023/05/04 10:02:01;;;;;;;3.88;3.42;;;21.90;99.90;;;;;;5093838;28;20189;-73
2023/05/04 10:04:27;;;;;;;3.85;3.38;;;22.20;99.90;;;;;;5096873;27;20181;-73
2023/05/04 10:06:54;;;;;;;5.57;3.80;;;22.50;99.90;;;;;;5135737;27;20167;-73
2023/05/04 10:09:20;;;;;;;5.15;3.65;;;22.90;99.90;;;;;;5136089;27;20188;-73
2023/05/04 10:11:47;;;;;;;6.50;3.65;;;23.00;99.90;;;;;;5134756;27;20160;-72
2023/05/04 10:14:13;;;;;;;6.80;4.20;;;22.50;99.90;;;;;;5135836;27;20203;-73
2023/05/04 10:16:52;;;;;;;5.70;3.75;;;22.40;99.90;;;;;;5134950;27;20167;-73
2023/05/04 10:19:27;;;;;;;10.20;3.75;;;22.40;99.90;;;;;;5134312;27;20559;-73
2023/05/04 10:22:05;;;;;;;6.97;4.13;;;22.40;99.90;;;;;;5135530;27;20163;-73
2023/05/04 10:24:48;;;;;;;5.68;3.85;;;22.50;99.90;;;;;;5135705;27;20256;-73
2023/05/04 10:27:17;;;;;;;5.82;3.53;;;22.70;99.90;;;;;;5134262;27;20163;-73
2023/05/04 10:29:49;;;;;;;6.60;3.90;;;22.50;99.90;;;;;;5134137;27;20199;-73
2023/05/04 10:32:20;;;;;;;6.70;3.92;;;22.30;99.90;;;;;;5134036;27;20176;-73
2023/05/04 10:34:46;;;;;;;5.32;3.75;;;22.20;99.90;;;;;;5131018;27;20178;-72
2023/05/04 10:37:17;;;;;;;5.25;4.22;;;22.20;99.90;;;;;;5114630;28;20184;-73
2023/05/04 10:39:51;;;;;;;7.60;3.90;;;22.30;99.90;;;;;;5114735;28;20605;-73
2023/05/04 10:42:17;;;;;;;6.13;3.70;;;22.20;99.90;;;;;;5115056;28;20160;-73
2023/05/04 10:44:56;;;;;;;5.93;3.63;;;22.00;99.90;;;;;;5114631;28;20169;-73
2023/05/04 10:47:36;;;;;;;6.85;3.97;;;22.10;99.90;;;;;;5113340;27;20225;-73
2023/05/04 10:50:05;;;;;;;4.65;3.30;;;22.10;99.90;;;;;;5113224;28;20730;-73
2023/05/04 10:52:32;;;;;;;7.75;3.90;;;22.20;99.90;;;;;;5114336;27;20589;-73
2023/05/04 10:55:00;;;;;;;7.93;3.80;;;22.10;99.90;;;;;;5114738;28;20168;-73
2023/05/04 10:57:27;;;;;;;5.45;3.60;;;22.20;99.90;;;;;;5113179;28;20172;-73
2023/05/04 10:59:58;;;;;;;3.92;3.20;;;22.40;99.90;;;;;;5113150;28;20204;-73
2023/05/04 11:02:25;;;;;;;4.88;3.20;;;22.40;99.90;;;;;;5114275;28;20188;-73
2023/05/04 11:05:05;;;;;;;4.68;3.63;;;22.30;99.90;;;;;;5118289;27;20178;-73
2023/05/04 11:07:40;;;;;;;4.07;3.60;;;22.20;99.90;;;;;;5134856;27;20152;-73
2023/05/04 11:10:08;;;;;;;8.10;3.85;;;22.20;99.90;;;;;;5133480;27;20195;-73
2023/05/04 11:12:36;;;;;;;5.65;3.30;;;22.50;99.90;;;;;;5135010;27;22114;-73
2023/05/04 11:15:09;;;;;;;4.00;3.35;;;22.60;99.90;;;;;;5135086;27;20192;-73
2023/05/04 11:17:48;;;;;;;4.13;3.55;;;22.70;99.90;;;;;;5134771;27;20227;-73
2023/05/04 11:20:21;;;;;;;7.43;3.33;;;22.80;99.90;;;;;;5134601;27;20320;-73
2023/05/04 11:22:47;;;;;;;5.90;3.17;;;23.00;99.90;;;;;;5134779;27;20176;-73
2023/05/04 11:25:13;;;;;;;6.15;3.45;;;23.10;99.90;;;;;;5134635;27;20241;-73
2023/05/04 11:27:41;;;;;;;4.32;3.20;;;23.30;99.90;;;;;;5134626;27;20180;-73
2023/05/04 11:30:08;;;;;;;5.60;3.47;;;23.50;99.90;;;;;;5133373;28;20199;-73
2023/05/04 11:32:45;;;;;;;4.50;3.20;;;23.60;99.90;;;;;;5133239;28;20659;-73
2023/05/04 11:35:16;;;;;;;5.13;3.28;;;23.70;99.90;;;;;;5134769;27;20175;-73
2023/05/04 11:37:43;;;;;;;6.65;3.28;;;23.60;99.90;;;;;;5134286;27;20616;-73
2023/05/04 11:40:13;;;;;;;4.00;2.92;;;23.60;99.90;;;;;;5134422;27;20561;-73
2023/05/04 11:42:40;;;;;;;4.32;3.33;;;23.70;99.90;;;;;;5134700;27;20171;-73
2023/05/04 11:45:12;;;;;;;4.35;3.00;;;23.80;99.90;;;;;;5133270;28;20652;-73
2023/05/04 11:47:38;;;;;;;5.72;3.60;;;24.00;99.90;;;;;;5134843;27;20164;-73
2023/05/04 11:50:06;;;;;;;3.75;3.00;;;23.80;99.90;;;;;;5134987;27;20551;-73
2023/05/04 11:52:35;;;;;;;3.17;2.85;;;23.70;99.90;;;;;;5134473;27;20167;-73
2023/05/04 11:55:02;;;;;;;5.07;3.25;;;23.90;99.90;;;;;;5134322;27;20166;-73
2023/05/04 11:57:30;;;;;;;6.43;3.22;;;24.10;99.90;;;;;;5133098;28;20172;-73
2023/05/04 11:59:56;;;;;;;5.85;3.10;;;24.30;99.90;;;;;;5132987;28;20668;-73
2023/05/04 12:02:22;;;;;;;4.70;2.92;;;24.30;99.90;;;;;;5134306;27;20180;-73
2023/05/04 12:04:48;;;;;;;3.92;3.00;;;24.50;99.90;;;;;;5132896;28;20644;-73
2023/05/04 12:07:13;;;;;;;4.45;3.17;;;24.80;99.90;;;;;;5134156;27;20251;-73
2023/05/04 12:09:49;;;;;;;5.30;3.05;;;24.80;99.90;;;;;;5134075;27;20222;-73
2023/05/04 12:12:17;;;;;;;5.43;2.83;;;25.00;99.90;;;;;;5133008;28;20594;-73
2023/05/04 12:14:51;;;;;;;5.65;3.03;;;25.00;1.00;;;;;;5133466;27;20176;-73
2023/05/04 12:17:20;;;;;;;4.22;2.80;;;25.10;99.90;;;;;;5138164;27;20183;-73
2023/05/04 12:19:56;;;;;;;5.65;3.00;;;25.40;99.90;;;;;;5136578;27;20199;-73
2023/05/04 12:22:29;;;;;;;3.83;2.72;;;25.40;99.90;;;;;;5138044;27;20190;-73
2023/05/04 12:24:58;;;;;;;4.10;3.20;;;25.40;1.00;;;;;;5138316;27;20214;-73
2023/05/04 12:27:27;;;;;;;3.75;3.20;;;25.60;99.90;;;;;;5136569;27;20172;-73
2023/05/04 12:29:53;;;;;;;3.58;2.63;;;25.50;99.90;;;;;;5136483;27;20259;-73
2023/05/04 12:32:20;;;;;;;4.03;3.08;;;25.80;99.90;;;;;;5136527;27;20176;-73
2023/05/04 12:34:46;;;;;;;7.38;2.92;;;25.80;99.90;;;;;;5137780;27;20183;-73
2023/05/04 12:37:11;;;;;;;6.85;3.50;;;25.80;99.90;;;;;;5137689;27;20172;-73
2023/05/04 12:39:38;;;;;;;5.00;2.80;;;25.80;99.90;;;;;;5137731;27;20199;-73
2023/05/04 12:42:04;;;;;;;5.18;2.70;;;25.80;99.90;;;;;;5136421;27;20182;-73
2023/05/04 12:44:30;;;;;;;3.70;2.50;;;25.80;99.90;;;;;;5137595;27;20175;-73
2023/05/04 12:46:56;;;;;;;4.75;3.05;;;25.80;99.90;;;;;;5136249;27;20203;-73
2023/05/04 12:49:22;;;;;;;6.10;3.50;;;25.70;99.90;;;;;;5137479;27;20187;-73
2023/05/04 12:51:50;;;;;;;2.53;2.33;;;25.80;99.90;;;;;;5137441;27;20655;-73
2023/05/04 12:54:16;;;;;;;3.05;2.75;;;25.80;99.90;;;;;;5137875;27;20279;-73
2023/05/04 12:56:42;;;;;;;3.45;2.55;;;26.00;99.90;;;;;;5137468;27;20171;-73
2023/05/04 12:59:08;;;;;;;4.03;2.75;;;26.30;99.90;;;;;;5137737;27;20192;-73
2023/05/04 13:01:33;;;;;;;3.90;2.65;;;26.80;99.90;;;;;;5138327;27;20183;-73
2023/05/04 13:03:59;;;;;;;4.00;2.63;;;27.10;99.90;;;;;;5138143;27;20606;-73
2023/05/04 13:06:25;;;;;;;5.57;2.60;;;27.30;99.90;;;;;;5118484;27;20212;-73
2023/05/04 13:08:51;;;;;;;3.55;2.78;;;27.60;99.90;;;;;;5118060;28;20203;-73
2023/05/04 13:11:18;;;;;;;3.72;2.50;;;27.80;99.90;;;;;;5119546;28;20168;-74
2023/05/04 13:13:45;;;;;;;5.35;2.75;;;27.60;99.90;;;;;;5117822;28;20203;-73
2023/05/04 13:16:12;;;;;;;5.15;2.60;;;27.30;99.90;;;;;;5115535;28;20176;-73
2023/05/04 13:18:38;;;;;;;3.35;2.70;;;27.50;99.90;;;;;;5116551;27;20521;-73
2023/05/04 13:21:04;;;;;;;3.97;2.47;;;27.80;99.90;;;;;;5115391;28;20180;-73